Austin, UT

6:34 PM MDT on July 01, 2015 (GMT -0600)
Putter Butt Farms | | Change Station
CLOSE
Current Station
Personal Weather Station
Location: Monroe, UT
Elevation: 5322 ft
Nearby Weather Stations

Elev 5322 ft 38.65 °N, 112.14 °W | Updated 25 seconds ago

Partly Cloudy
Partly Cloudy
93.4 °F
Feels Like 89 °F
N
6.0
Wind Variable Wind from NNE
Gusts 11.5 mph

Today
High -- | Low -- °F
--% Chance of Precip.
Yesterday
High -- | Low -- °F
Precip. -- in
6:07 AM 8:57 PM
Full, 100% visible
Pressure 29.77 in
Visibility 10.0 miles
Clouds Clear
Heat Index 89 °F
Dew Point 42 °F
Humidity 17%
Rainfall 0.00 in
Snow Depth Not available.
UV 0.8 out of 12
Pollen 6.10 out of 12
Air Quality Not available.
Flu Activity Not available.
METAR KMLF 012352Z AUTO 33010KT 10SM CLR 36/06 A3000 RMK AO2 SLP080 T03610061 10383 20333 56018

More Conditions Fewer Conditions

Pressure 29.77 in
Visibility 10.0 miles
Clouds Clear
Heat Index 89 °F
Dew Point 42 °F
Humidity 17%
Rainfall 0.00 in
Snow Depth Not available.
UV 0.8 out of 12
Pollen 6.10 out of 12
Air Quality Not available.
Flu Activity Not available.
METAR KMLF 012352Z AUTO 33010KT 10SM CLR 36/06 A3000 RMK AO2 SLP080 T03610061 10383 20333 56018

More Conditions Fewer Conditions

Nowcast | as of 6:14 PM MDT on July 1, 2015

Scattered showers and isolated thunderstorms will continue to develop over portions of southern and central Utah this evening. The strongest storms at 600 PM were located just southeast of Springdale...between Enterprise and Pine Valley...and between Bryce Canyon and Escalante. Some of these storms are capable of producing cloud to ground lightning...strong gusty winds...locally heavy rain and hail.

×

10-Day Weather Forecast

×

Almanac

Astronomy

Jul. 01, 2015 Rise Set
Actual Time
Civil Twilight
Nautical Twilight
Astronomical Twilight
Moon
Length of Visible Light
Length of Day
Tomorrow will be .
, % of the Moon is Illuminated

Today's Extremes

State Highs State Lows

Community

WunderPhotos

Upload Photos

1,834,355 photos uploaded!

WunderBlogs® & News

Nearby

Air Quality

  Air Quality AQ Index Pollutant
Not available.

Snow Depth

Station Depth Elevation

Earthquake Activity

City Distance Mag. Time & Date
Minimum magnitude displayed is 2.5.

Coastal Water Temperatures

Place Temperature

Stations

Nearby Weather Stations

Station Location Temp. Windchill Dew Point Humidity Wind Precip. Elev Updated Type